Time;durP1;ratioP1;P1;durP2;ratioP2;P2;SDS_P1;SDS_P2;PMS_P1;PMS_P2;Temp;Humidity;BMP_temperature;BMP_pressure;BME280_temperature;BME280_humidity;BME280_pressure;Samples;Min_cycle;Max_cycle;Signal;HPM_P1;HPM_P2
2022/07/16 00:01:53;;;;;;;3.50;1.80;;;;;;;;;;12609559;28;20157;-76
2022/07/16 00:07:54;;;;;;;4.05;3.75;;;;;;;;;;12626410;28;20032;-80
2022/07/16 00:13:56;;;;;;;2.85;2.58;;;;;;;;;;12643894;28;20400;-76
2022/07/16 00:19:58;;;;;;;2.92;2.58;;;;;;;;;;12635489;28;20032;-81
2022/07/16 00:25:59;;;;;;;1.83;1.73;;;;;;;;;;12653813;28;20047;-81
2022/07/16 00:32:01;;;;;;;1.90;1.80;;;;;;;;;;12618957;28;20035;-76
2022/07/16 00:38:04;;;;;;;1.98;1.60;;;;;;;;;;12636120;28;20051;-81
2022/07/16 00:44:07;;;;;;;2.00;1.75;;;;;;;;;;12653294;28;20052;-80
2022/07/16 00:50:09;;;;;;;2.38;1.90;;;;;;;;;;12634812;28;20039;-80
2022/07/16 00:56:12;;;;;;;3.15;1.88;;;;;;;;;;12618032;28;20036;-76
2022/07/16 01:02:13;;;;;;;1.98;1.85;;;;;;;;;;12634278;28;20027;-80
2022/07/16 01:08:15;;;;;;;2.60;2.00;;;;;;;;;;12652563;28;20032;-80
2022/07/16 01:14:17;;;;;;;2.67;1.95;;;;;;;;;;12616468;28;20036;-80
2022/07/16 01:20:20;;;;;;;3.08;2.17;;;;;;;;;;12651196;28;20494;-80
2022/07/16 01:26:21;;;;;;;2.38;2.17;;;;;;;;;;12632779;28;20040;-80
2022/07/16 01:32:23;;;;;;;2.72;2.10;;;;;;;;;;12650666;28;20039;-76
2022/07/16 01:38:25;;;;;;;2.35;2.15;;;;;;;;;;12651082;28;20043;-79
2022/07/16 01:44:28;;;;;;;1.80;1.70;;;;;;;;;;12632809;28;20047;-80
2022/07/16 01:50:30;;;;;;;3.63;2.58;;;;;;;;;;12650977;28;20376;-75
2022/07/16 01:56:32;;;;;;;3.17;2.50;;;;;;;;;;12632485;28;20032;-75
2022/07/16 02:02:33;;;;;;;3.13;2.00;;;;;;;;;;12649826;28;20396;-76
2022/07/16 02:08:35;;;;;;;2.63;2.40;;;;;;;;;;12615677;28;20043;-80
2022/07/16 02:14:37;;;;;;;2.50;2.30;;;;;;;;;;12648827;28;20507;-80
2022/07/16 02:20:39;;;;;;;2.92;2.72;;;;;;;;;;12648426;28;20032;-76
2022/07/16 02:26:40;;;;;;;2.50;2.30;;;;;;;;;;12648299;28;20044;-80
2022/07/16 02:32:42;;;;;;;2.53;2.33;;;;;;;;;;12648131;28;20043;-80
2022/07/16 02:38:44;;;;;;;2.35;2.05;;;;;;;;;;12647628;28;20039;-76
2022/07/16 02:44:46;;;;;;;3.17;2.15;;;;;;;;;;12612710;28;20493;-80
2022/07/16 02:50:48;;;;;;;2.50;2.20;;;;;;;;;;12611917;28;20393;-77
2022/07/16 02:56:50;;;;;;;2.10;2.00;;;;;;;;;;12628661;28;20039;-81
2022/07/16 03:02:52;;;;;;;3.42;2.70;;;;;;;;;;12611987;28;20055;-77
2022/07/16 03:08:54;;;;;;;2.30;2.10;;;;;;;;;;12646738;28;20031;-76
2022/07/16 03:14:57;;;;;;;1.65;1.55;;;;;;;;;;12628020;28;20043;-76
2022/07/16 03:20:58;;;;;;;2.45;2.25;;;;;;;;;;12645325;28;20028;-80
2022/07/16 03:27:00;;;;;;;2.13;2.00;;;;;;;;;;12645912;28;20036;-76
2022/07/16 03:33:03;;;;;;;2.20;2.10;;;;;;;;;;12646035;28;20043;-77
2022/07/16 03:39:04;;;;;;;3.03;2.63;;;;;;;;;;12646399;28;20400;-80
2022/07/16 03:45:06;;;;;;;;;;;;;;;;;;12646010;28;20043;-76
2022/07/16 03:51:08;;;;;;;2.10;2.00;;;;;;;;;;12626357;28;20283;-76
2022/07/16 03:57:10;;;;;;;1.75;1.65;;;;;;;;;;12610745;28;20250;-80
2022/07/16 04:03:12;;;;;;;2.30;2.10;;;;;;;;;;12610617;28;20629;-76
2022/07/16 04:09:13;;;;;;;;;;;;;;;;;;12628295;28;20043;-76
2022/07/16 04:15:15;;;;;;;1.70;1.60;;;;;;;;;;12645033;28;19912;-80
2022/07/16 04:21:16;;;;;;;;;;;;;;;;;;12627060;28;20043;-76
2022/07/16 04:27:18;;;;;;;1.80;1.70;;;;;;;;;;12626936;28;19923;-76
2022/07/16 04:33:20;;;;;;;1.50;1.40;;;;;;;;;;12609927;28;20032;-75
2022/07/16 04:39:21;;;;;;;;;;;;;;;;;;12610432;28;20071;-75
2022/07/16 04:45:23;;;;;;;1.50;1.40;;;;;;;;;;12644162;28;20317;-79
2022/07/16 04:51:25;;;;;;;;;;;;;;;;;;12644617;28;20289;-76
2022/07/16 04:57:26;;;;;;;3.30;1.50;;;;;;;;;;12643286;28;19915;-75
2022/07/16 05:03:28;;;;;;;;;;;;;;;;;;12648928;28;20040;-75
2022/07/16 05:09:30;;;;;;;1.83;1.30;;;;;;;;;;12652978;28;19908;-79
2022/07/16 05:15:31;;;;;;;2.17;1.90;;;;;;;;;;12633813;28;20047;-80
2022/07/16 05:21:33;;;;;;;2.25;1.92;;;;;;;;;;12616461;28;20062;-80
2022/07/16 05:27:35;;;;;;;;;;;;;;;;;;12632835;28;20059;-79
2022/07/16 05:33:36;;;;;;;2.07;1.97;;;;;;;;;;12634045;28;19908;-76
2022/07/16 05:39:38;;;;;;;;;;;;;;;;;;12633592;28;20298;-79
2022/07/16 05:45:39;;;;;;;1.70;1.60;;;;;;;;;;12632918;28;19942;-80
2022/07/16 05:51:41;;;;;;;1.70;1.55;;;;;;;;;;12650827;28;20293;-80
2022/07/16 05:57:43;;;;;;;3.15;1.52;;;;;;;;;;12632531;28;20387;-76
2022/07/16 06:03:45;;;;;;;2.10;1.73;;;;;;;;;;12632120;28;20067;-80
2022/07/16 06:09:47;;;;;;;2.28;1.55;;;;;;;;;;12650972;28;20024;-76
2022/07/16 06:15:49;;;;;;;1.52;1.42;;;;;;;;;;12648419;28;20492;-76
2022/07/16 06:21:51;;;;;;;1.33;1.25;;;;;;;;;;12649328;28;20042;-81
2022/07/16 06:27:53;;;;;;;1.38;1.27;;;;;;;;;;12631225;28;20503;-81
2022/07/16 06:33:54;;;;;;;1.60;1.50;;;;;;;;;;12630225;28;20476;-76
2022/07/16 06:39:56;;;;;;;1.38;1.27;;;;;;;;;;12648753;28;20040;-76
2022/07/16 06:45:58;;;;;;;2.40;1.65;;;;;;;;;;12648498;28;20048;-80
2022/07/16 06:52:00;;;;;;;1.38;1.30;;;;;;;;;;12630588;28;20035;-76
2022/07/16 06:58:02;;;;;;;1.65;1.33;;;;;;;;;;12629706;28;20470;-77
2022/07/16 07:04:04;;;;;;;3.05;1.60;;;;;;;;;;12646884;28;20047;-75
2022/07/16 07:10:06;;;;;;;2.78;1.67;;;;;;;;;;12648456;28;20464;-75
2022/07/16 07:16:07;;;;;;;2.58;1.70;;;;;;;;;;12646662;28;20047;-80
2022/07/16 07:22:09;;;;;;;2.97;1.70;;;;;;;;;;12629024;28;20059;-75
2022/07/16 07:28:11;;;;;;;2.45;2.00;;;;;;;;;;12628138;28;20396;-76
2022/07/16 07:34:13;;;;;;;4.10;1.35;;;;;;;;;;12646184;28;20032;-81
2022/07/16 07:40:15;;;;;;;1.52;1.42;;;;;;;;;;12611521;28;20075;-81
2022/07/16 07:46:17;;;;;;;1.27;1.17;;;;;;;;;;12610988;28;20070;-81
2022/07/16 07:52:18;;;;;;;1.30;1.20;;;;;;;;;;12628323;28;20387;-80
2022/07/16 07:58:20;;;;;;;1.80;1.70;;;;;;;;;;12610190;28;20046;-76
2022/07/16 08:04:22;;;;;;;1.63;1.52;;;;;;;;;;12644929;28;20043;-76
2022/07/16 08:10:23;;;;;;;2.55;1.70;;;;;;;;;;12628059;28;20881;-80
2022/07/16 08:16:25;;;;;;;1.50;1.40;;;;;;;;;;12626393;28;20044;-77
2022/07/16 08:22:27;;;;;;;1.80;1.15;;;;;;;;;;12644732;28;20032;-76
2022/07/16 08:28:29;;;;;;;1.70;1.58;;;;;;;;;;12644403;28;20142;-76
2022/07/16 08:34:30;;;;;;;3.22;1.63;;;;;;;;;;12642035;28;20510;-80
2022/07/16 08:40:34;;;;;;;1.33;1.23;;;;;;;;;;12632018;28;20056;-80
2022/07/16 08:46:35;;;;;;;1.83;1.60;;;;;;;;;;12632404;28;20047;-80
2022/07/16 08:52:57;;;;;;;1.10;1.10;;;;;;;;;;12649863;28;20540;-80
2022/07/16 08:59:00;;;;;;;1.40;1.30;;;;;;;;;;12649396;28;20055;-81
2022/07/16 09:05:01;;;;;;;1.48;1.38;;;;;;;;;;12632815;28;20387;-76
2022/07/16 09:11:16;;;;;;;1.35;1.27;;;;;;;;;;12651408;28;20043;-76
2022/07/16 09:17:18;;;;;;;1.45;1.35;;;;;;;;;;12632324;28;20040;-80
2022/07/16 09:23:21;;;;;;;1.23;1.08;;;;;;;;;;12631493;28;20044;-79
2022/07/16 09:29:23;;;;;;;1.27;1.13;;;;;;;;;;12631276;28;20035;-76
2022/07/16 09:35:25;;;;;;;2.58;1.20;;;;;;;;;;12631295;28;20032;-76
2022/07/16 09:41:27;;;;;;;1.25;1.15;;;;;;;;;;12631115;28;20058;-79
2022/07/16 09:47:29;;;;;;;1.25;1.15;;;;;;;;;;12630994;28;20039;-76
2022/07/16 09:53:37;;;;;;;0.73;0.73;;;;;;;;;;12630081;28;20051;-80
2022/07/16 09:59:40;;;;;;;1.42;1.33;;;;;;;;;;12629660;28;20035;-77
2022/07/16 10:05:42;;;;;;;2.20;1.13;;;;;;;;;;12630115;28;20036;-80
2022/07/16 10:11:45;;;;;;;1.73;1.20;;;;;;;;;;12629493;28;20028;-77
2022/07/16 10:17:46;;;;;;;1.08;0.98;;;;;;;;;;12646534;28;20055;-81
2022/07/16 10:23:48;;;;;;;2.03;1.35;;;;;;;;;;12645300;28;20040;-80
2022/07/16 10:29:50;;;;;;;1.15;1.00;;;;;;;;;;12645279;28;20036;-80
2022/07/16 10:36:03;;;;;;;1.60;1.20;;;;;;;;;;12627767;28;20058;-81
2022/07/16 10:42:06;;;;;;;1.35;1.25;;;;;;;;;;12645386;28;20052;-76
2022/07/16 10:48:08;;;;;;;1.20;1.10;;;;;;;;;;12627565;28;20287;-80
2022/07/16 10:54:13;;;;;;;1.83;1.30;;;;;;;;;;12627352;28;20038;-80
2022/07/16 11:00:14;;;;;;;1.42;1.13;;;;;;;;;;12644151;28;20032;-76
2022/07/16 11:06:18;;;;;;;1.63;1.25;;;;;;;;;;12644413;28;20036;-77
2022/07/16 11:12:25;;;;;;;1.90;0.90;;;;;;;;;;12626711;28;20032;-81
2022/07/16 11:18:36;;;;;;;0.88;0.88;;;;;;;;;;12644108;28;20359;-77
2022/07/16 11:25:05;;;;;;;1.02;1.00;;;;;;;;;;12625923;28;20395;-76
2022/07/16 11:31:08;;;;;;;0.90;0.90;;;;;;;;;;12622108;28;20051;-77
2022/07/16 11:37:28;;;;;;;;;;;;;;;;;;12629127;28;20028;-80
2022/07/16 11:43:30;;;;;;;2.45;1.20;;;;;;;;;;12625258;28;19920;-81
2022/07/16 11:49:32;;;;;;;0.85;0.75;;;;;;;;;;12625146;28;20059;-77
2022/07/16 11:55:34;;;;;;;1.98;1.20;;;;;;;;;;12624860;28;20032;-81
2022/07/16 12:01:38;;;;;;;1.63;0.90;;;;;;;;;;12608212;28;20043;-80
2022/07/16 12:07:44;;;;;;;0.93;0.80;;;;;;;;;;12643066;28;20357;-77
2022/07/16 12:13:53;;;;;;;0.65;0.65;;;;;;;;;;12641661;28;20484;-77
2022/07/16 12:20:07;;;;;;;1.42;0.98;;;;;;;;;;12608340;28;20046;-80
2022/07/16 12:26:09;;;;;;;0.75;0.65;;;;;;;;;;12642057;28;20028;-76
2022/07/16 12:32:10;;;;;;;0.60;0.50;;;;;;;;;;12642354;28;20495;-76
2022/07/16 12:38:30;;;;;;;0.85;0.85;;;;;;;;;;12642392;28;20383;-76
2022/07/16 12:44:32;;;;;;;;;;;;;;;;;;12642569;28;20060;-76
2022/07/16 12:50:34;;;;;;;0.90;0.80;;;;;;;;;;12641454;28;20275;-76
2022/07/16 13:02:57;;;;;;;1.63;1.08;;;;;;;;;;12641439;28;20487;-80
2022/07/16 13:08:58;;;;;;;1.02;1.00;;;;;;;;;;12626789;28;20043;-80
2022/07/16 13:15:01;;;;;;;0.52;0.52;;;;;;;;;;12641243;28;20396;-81
2022/07/16 13:21:03;;;;;;;1.95;1.30;;;;;;;;;;12622899;28;20024;-75
2022/07/16 13:27:04;;;;;;;0.88;0.88;;;;;;;;;;12650963;28;20040;-76
2022/07/16 13:33:06;;;;;;;1.25;0.90;;;;;;;;;;12649657;28;20042;-80
2022/07/16 13:39:08;;;;;;;0.80;0.80;;;;;;;;;;12637650;28;20063;-77
2022/07/16 13:45:10;;;;;;;1.80;1.00;;;;;;;;;;12633639;28;20062;-76
2022/07/16 13:51:13;;;;;;;0.98;0.98;;;;;;;;;;12654113;28;20032;-77
2022/07/16 14:03:35;;;;;;;1.40;1.08;;;;;;;;;;12648351;28;20392;-76
2022/07/16 14:09:37;;;;;;;1.60;1.00;;;;;;;;;;12617350;28;20032;-76
2022/07/16 14:15:39;;;;;;;1.98;1.67;;;;;;;;;;12630023;28;20047;-77
2022/07/16 14:21:43;;;;;;;2.35;1.50;;;;;;;;;;12630474;28;20032;-76
2022/07/16 14:27:45;;;;;;;1.05;0.95;;;;;;;;;;12646471;28;20040;-77
2022/07/16 14:33:47;;;;;;;1.25;1.20;;;;;;;;;;12633162;28;20040;-76
2022/07/16 14:39:49;;;;;;;1.20;0.90;;;;;;;;;;12646629;28;20051;-80
2022/07/16 14:45:51;;;;;;;1.48;1.13;;;;;;;;;;12645695;28;20039;-76
2022/07/16 14:51:53;;;;;;;0.80;0.80;;;;;;;;;;12626876;28;20032;-77
2022/07/16 14:57:55;;;;;;;1.90;1.35;;;;;;;;;;12628560;28;20036;-76
2022/07/16 15:03:57;;;;;;;1.00;0.85;;;;;;;;;;12626658;28;20040;-80
2022/07/16 15:09:58;;;;;;;1.10;1.00;;;;;;;;;;12627168;28;20040;-77
2022/07/16 15:16:00;;;;;;;0.63;0.63;;;;;;;;;;12644295;28;20043;-77
2022/07/16 15:22:02;;;;;;;1.73;0.73;;;;;;;;;;12626946;28;20194;-79
2022/07/16 15:28:05;;;;;;;1.90;1.25;;;;;;;;;;12643340;28;20040;-76
2022/07/16 15:34:07;;;;;;;2.78;1.05;;;;;;;;;;12643369;28;20035;-76
2022/07/16 15:40:09;;;;;;;1.38;1.02;;;;;;;;;;12625397;28;20052;-79
2022/07/16 15:46:11;;;;;;;1.58;0.85;;;;;;;;;;12644317;28;20036;-76
2022/07/16 15:52:13;;;;;;;0.68;0.68;;;;;;;;;;12612045;28;20039;-80
2022/07/16 15:58:16;;;;;;;1.38;0.88;;;;;;;;;;12627301;28;20048;-76
2022/07/16 16:04:18;;;;;;;1.35;0.90;;;;;;;;;;12648341;28;20035;-79
2022/07/16 16:10:20;;;;;;;0.77;0.77;;;;;;;;;;12625212;28;20047;-80
2022/07/16 16:16:22;;;;;;;1.13;1.00;;;;;;;;;;12643265;28;20047;-77
2022/07/16 16:22:24;;;;;;;1.63;0.88;;;;;;;;;;12628783;28;20040;-77
2022/07/16 16:28:25;;;;;;;0.93;0.70;;;;;;;;;;12625764;28;20036;-76
2022/07/16 16:34:27;;;;;;;0.80;0.80;;;;;;;;;;12647178;28;20028;-77
2022/07/16 16:40:29;;;;;;;1.58;0.90;;;;;;;;;;12643513;28;20060;-80
2022/07/16 16:46:31;;;;;;;0.93;0.60;;;;;;;;;;12643533;28;20039;-76
2022/07/16 16:52:33;;;;;;;1.33;0.90;;;;;;;;;;12623579;28;20047;-77
2022/07/16 16:58:35;;;;;;;1.35;0.70;;;;;;;;;;12625973;28;20384;-77
2022/07/16 17:04:37;;;;;;;0.40;0.40;;;;;;;;;;12653011;28;20040;-81
2022/07/16 17:10:38;;;;;;;1.02;0.70;;;;;;;;;;12633837;28;20636;-80
2022/07/16 17:16:41;;;;;;;0.80;0.70;;;;;;;;;;12650702;28;20028;-76
2022/07/16 17:22:43;;;;;;;1.30;0.80;;;;;;;;;;12631916;28;20119;-81
2022/07/16 17:28:44;;;;;;;2.10;1.30;;;;;;;;;;12633112;28;20032;-80
2022/07/16 17:34:46;;;;;;;1.15;0.75;;;;;;;;;;12659233;28;20032;-81
2022/07/16 17:40:48;;;;;;;1.85;1.13;;;;;;;;;;12633976;28;20056;-81
2022/07/16 17:46:50;;;;;;;0.82;0.80;;;;;;;;;;12633998;28;20047;-81
2022/07/16 17:52:59;;;;;;;2.20;1.00;;;;;;;;;;12652126;28;20476;-79
2022/07/16 17:59:01;;;;;;;2.03;1.48;;;;;;;;;;12652297;28;20043;-80
2022/07/16 18:05:03;;;;;;;3.60;2.25;;;;;;;;;;12650644;28;20044;-77
2022/07/16 18:11:07;;;;;;;2.45;2.22;;;;;;;;;;12632972;28;20036;-76
2022/07/16 18:17:09;;;;;;;1.42;1.33;;;;;;;;;;12652636;28;20035;-77
2022/07/16 18:23:11;;;;;;;2.63;1.83;;;;;;;;;;12633494;28;20056;-81
2022/07/16 18:29:13;;;;;;;1.60;1.50;;;;;;;;;;12635123;28;20036;-77
2022/07/16 18:35:15;;;;;;;1.92;1.55;;;;;;;;;;12636118;28;20044;-79
2022/07/16 18:41:17;;;;;;;1.40;1.30;;;;;;;;;;12648291;28;20056;-77
2022/07/16 18:47:19;;;;;;;2.15;1.58;;;;;;;;;;12652205;28;20040;-79
2022/07/16 18:53:20;;;;;;;1.85;1.35;;;;;;;;;;12632878;28;20407;-80
2022/07/16 18:59:22;;;;;;;1.27;1.02;;;;;;;;;;12647964;28;20036;-79
2022/07/16 19:05:24;;;;;;;1.98;1.00;;;;;;;;;;12647874;28;20059;-80
2022/07/16 19:11:26;;;;;;;1.58;1.15;;;;;;;;;;12648972;28;20032;-76
2022/07/16 19:17:28;;;;;;;2.45;1.40;;;;;;;;;;12649706;28;20038;-79
2022/07/16 19:23:30;;;;;;;2.83;1.50;;;;;;;;;;12646556;28;20028;-80
2022/07/16 19:29:35;;;;;;;1.55;1.05;;;;;;;;;;12629243;28;20040;-79
2022/07/16 19:35:37;;;;;;;1.30;1.20;;;;;;;;;;12624571;28;20067;-76
2022/07/16 19:41:40;;;;;;;2.33;1.10;;;;;;;;;;12647140;28;20043;-78
2022/07/16 19:47:42;;;;;;;1.85;1.10;;;;;;;;;;12647210;28;20047;-77
2022/07/16 19:53:45;;;;;;;1.30;1.20;;;;;;;;;;12646841;28;20418;-77
2022/07/16 19:59:47;;;;;;;1.15;1.00;;;;;;;;;;12645754;28;20028;-80
2022/07/16 20:05:48;;;;;;;1.27;1.20;;;;;;;;;;12653764;28;20051;-75
2022/07/16 20:11:50;;;;;;;1.95;1.35;;;;;;;;;;12661668;28;20043;-80
2022/07/16 20:17:58;;;;;;;1.70;1.10;;;;;;;;;;12658107;28;20031;-78
2022/07/16 20:24:01;;;;;;;1.35;1.13;;;;;;;;;;12651214;28;20028;-77
2022/07/16 20:30:03;;;;;;;2.40;0.90;;;;;;;;;;12658366;28;20036;-76
2022/07/16 20:36:05;;;;;;;1.13;1.00;;;;;;;;;;12672238;28;20020;-77
2022/07/16 20:42:07;;;;;;;1.30;1.20;;;;;;;;;;12655446;28;20059;-77
2022/07/16 20:48:08;;;;;;;1.50;1.40;;;;;;;;;;12655574;28;20036;-80
2022/07/16 20:54:10;;;;;;;1.60;1.50;;;;;;;;;;12642992;28;20040;-76
2022/07/16 21:00:14;;;;;;;1.67;1.48;;;;;;;;;;12658388;28;20036;-76
2022/07/16 21:06:16;;;;;;;1.58;1.48;;;;;;;;;;12643088;28;20044;-80
2022/07/16 21:12:18;;;;;;;1.73;1.50;;;;;;;;;;12663772;28;20472;-76
2022/07/16 21:18:20;;;;;;;1.90;1.80;;;;;;;;;;12662400;28;20024;-81
2022/07/16 21:24:21;;;;;;;1.50;1.40;;;;;;;;;;12660802;28;20411;-81
2022/07/16 21:30:23;;;;;;;1.60;1.50;;;;;;;;;;12666811;28;20035;-81
2022/07/16 21:36:25;;;;;;;1.85;1.50;;;;;;;;;;12690403;28;20399;-77
2022/07/16 21:42:27;;;;;;;1.85;1.40;;;;;;;;;;12671327;28;20056;-76
2022/07/16 21:48:28;;;;;;;1.60;1.50;;;;;;;;;;12655973;28;20506;-77
2022/07/16 21:54:30;;;;;;;1.38;1.23;;;;;;;;;;12632569;28;20035;-79
2022/07/16 22:00:32;;;;;;;1.60;1.50;;;;;;;;;;12650220;28;20032;-77
2022/07/16 22:06:34;;;;;;;1.00;1.00;;;;;;;;;;12621063;28;20044;-78
2022/07/16 22:12:36;;;;;;;2.03;1.90;;;;;;;;;;12645254;28;20526;-80
2022/07/16 22:24:58;;;;;;;1.98;1.88;;;;;;;;;;12654362;28;20056;-80
2022/07/16 22:31:00;;;;;;;1.92;1.77;;;;;;;;;;12651594;28;20484;-78
2022/07/16 22:37:01;;;;;;;1.85;1.70;;;;;;;;;;12651146;28;20040;-79
2022/07/16 22:43:03;;;;;;;3.20;1.80;;;;;;;;;;12649205;28;20082;-76
2022/07/16 22:49:05;;;;;;;2.33;1.80;;;;;;;;;;12630206;28;20048;-79
2022/07/16 22:55:07;;;;;;;2.17;1.77;;;;;;;;;;12647383;28;20040;-76
2022/07/16 23:01:09;;;;;;;2.63;1.95;;;;;;;;;;12652742;28;20036;-80
2022/07/16 23:07:10;;;;;;;1.80;1.70;;;;;;;;;;12630790;28;20407;-75
2022/07/16 23:13:12;;;;;;;1.92;1.80;;;;;;;;;;12649566;28;20036;-75
2022/07/16 23:19:14;;;;;;;1.98;1.80;;;;;;;;;;12649061;28;20404;-76
2022/07/16 23:25:16;;;;;;;1.60;1.50;;;;;;;;;;12629028;28;20040;-75
2022/07/16 23:31:17;;;;;;;4.18;2.40;;;;;;;;;;12650847;28;20035;-75
2022/07/16 23:37:19;;;;;;;2.55;2.05;;;;;;;;;;12646828;28;20043;-79
2022/07/16 23:43:23;;;;;;;2.58;2.05;;;;;;;;;;12652397;28;20067;-75
2022/07/16 23:49:25;;;;;;;2.40;2.20;;;;;;;;;;12646999;28;20047;-77
2022/07/16 23:55:27;;;;;;;2.95;2.00;;;;;;;;;;12616265;28;20035;-79
